createdAt,value
2019-05-21T00:02:10.271Z,2.17
2019-05-21T00:04:43.242Z,1.80
2019-05-21T00:07:22.325Z,1.65
2019-05-21T00:09:55.695Z,2.20
2019-05-21T00:12:35.039Z,2.92
2019-05-21T00:15:01.522Z,1.98
2019-05-21T00:17:28.018Z,2.22
2019-05-21T00:20:00.814Z,1.62
2019-05-21T00:22:27.347Z,2.12
2019-05-21T00:24:53.932Z,1.95
2019-05-21T00:27:27.208Z,1.85
2019-05-21T00:30:38.039Z,1.82
2019-05-21T00:33:41.862Z,1.60
2019-05-21T00:36:54.747Z,1.60
2019-05-21T00:39:58.501Z,2.25
2019-05-21T00:42:38.244Z,2.02
2019-05-21T00:45:07.816Z,2.00
2019-05-21T00:47:40.761Z,1.70
2019-05-21T00:50:07.859Z,1.75
2019-05-21T00:52:34.270Z,1.62
2019-05-21T00:55:07.277Z,1.60
2019-05-21T00:57:33.773Z,1.98
2019-05-21T01:00:00.248Z,2.08
2019-05-21T01:02:32.857Z,1.90
2019-05-21T01:05:01.036Z,2.05
2019-05-21T01:07:27.681Z,1.70
2019-05-21T01:10:00.624Z,1.75
2019-05-21T01:12:33.988Z,1.95
2019-05-21T01:15:13.210Z,2.17
2019-05-21T01:17:39.745Z,2.00
2019-05-21T01:20:06.363Z,1.90
2019-05-21T01:22:39.794Z,2.22
2019-05-21T01:25:06.287Z,2.70
2019-05-21T01:27:32.741Z,2.08
2019-05-21T01:30:06.297Z,2.30
2019-05-21T01:32:39.575Z,2.10
2019-05-21T01:35:16.857Z,2.42
2019-05-21T01:37:34.419Z,2.20
2019-05-21T01:40:07.888Z,2.45
2019-05-21T01:42:40.797Z,2.20
2019-05-21T01:45:17.226Z,1.90
2019-05-21T01:47:50.457Z,2.10
2019-05-21T01:50:17.095Z,2.60
2019-05-21T01:52:43.715Z,2.42
2019-05-21T01:55:16.834Z,2.17
2019-05-21T01:57:43.291Z,2.67
2019-05-21T02:00:16.174Z,2.52
2019-05-21T02:02:42.649Z,2.22
2019-05-21T02:05:09.269Z,2.42
2019-05-21T02:07:42.856Z,2.67
2019-05-21T02:10:16.484Z,2.60
2019-05-21T02:12:56.414Z,2.70
2019-05-21T02:15:23.022Z,3.00
2019-05-21T02:17:49.611Z,3.37
2019-05-21T02:20:23.413Z,3.10
2019-05-21T02:22:56.628Z,2.52
2019-05-21T02:25:29.558Z,4.10
2019-05-21T02:27:55.916Z,3.05
2019-05-21T02:30:29.599Z,2.70
2019-05-21T02:33:02.444Z,2.70
2019-05-21T02:35:52.944Z,3.35
2019-05-21T02:38:04.234Z,3.33
2019-05-21T02:40:30.718Z,3.30
2019-05-21T02:43:04.050Z,3.77
2019-05-21T02:45:30.568Z,2.92
2019-05-21T02:47:57.177Z,3.33
2019-05-21T02:50:30.145Z,3.47
2019-05-21T02:52:56.731Z,3.15
2019-05-21T02:55:30.425Z,3.35
2019-05-21T02:57:56.905Z,2.92
2019-05-21T03:00:28.567Z,4.28
2019-05-21T03:03:01.860Z,3.20
2019-05-21T03:05:35.302Z,3.40
2019-05-21T03:08:01.821Z,2.95
2019-05-21T03:10:34.943Z,3.30
2019-05-21T03:13:08.002Z,3.65
2019-05-21T03:15:34.526Z,2.72
2019-05-21T03:18:01.109Z,2.83
2019-05-21T03:20:34.280Z,3.10
2019-05-21T03:23:07.145Z,2.70
2019-05-21T03:25:40.640Z,3.10
2019-05-21T03:28:07.270Z,2.58
2019-05-21T03:30:41.140Z,2.90
2019-05-21T03:33:07.666Z,3.50
2019-05-21T03:35:34.274Z,3.33
2019-05-21T03:38:07.185Z,3.10
2019-05-21T03:40:40.306Z,2.90
2019-05-21T03:43:06.860Z,3.20
2019-05-21T03:45:33.776Z,3.70
2019-05-21T03:48:09.124Z,3.20
2019-05-21T03:50:35.707Z,2.77
2019-05-21T03:53:08.937Z,2.85
2019-05-21T03:55:42.138Z,3.47
2019-05-21T03:58:15.265Z,3.02
2019-05-21T04:00:41.872Z,2.65
2019-05-21T04:03:21.895Z,2.55
2019-05-21T04:05:48.569Z,2.60
2019-05-21T04:08:15.096Z,3.08
2019-05-21T04:10:48.678Z,2.65
2019-05-21T04:13:29.225Z,2.75
2019-05-21T04:16:13.512Z,2.77
2019-05-21T04:19:00.650Z,2.37
2019-05-21T04:21:27.155Z,2.77
2019-05-21T04:24:00.658Z,2.90
2019-05-21T04:26:35.993Z,2.60
2019-05-21T04:29:02.582Z,2.83
2019-05-21T04:31:29.164Z,3.02
2019-05-21T04:34:02.069Z,3.60
2019-05-21T04:36:28.683Z,3.67
2019-05-21T04:38:55.189Z,3.45
2019-05-21T04:41:28.139Z,3.10
2019-05-21T04:43:54.672Z,2.95
2019-05-21T04:46:21.222Z,2.67
2019-05-21T04:48:54.912Z,2.72
2019-05-21T04:51:21.477Z,2.65
2019-05-21T04:53:48.044Z,2.83
2019-05-21T04:56:21.310Z,2.50
2019-05-21T04:58:47.819Z,2.30
2019-05-21T05:01:21.303Z,2.62
2019-05-21T05:03:57.803Z,2.98
2019-05-21T05:06:24.413Z,2.30
2019-05-21T05:08:57.184Z,2.55
2019-05-21T05:11:23.723Z,2.35
2019-05-21T05:13:57.229Z,2.55
2019-05-21T05:16:30.807Z,2.85
2019-05-21T05:19:03.836Z,2.45
2019-05-21T05:21:30.356Z,3.00
2019-05-21T05:23:56.944Z,3.35
2019-05-21T05:26:29.953Z,3.20
2019-05-21T05:28:56.552Z,2.90
2019-05-21T05:31:29.753Z,2.72
2019-05-21T05:33:56.395Z,3.25
2019-05-21T05:36:29.948Z,2.42
2019-05-21T05:39:06.226Z,2.85
2019-05-21T05:41:32.733Z,2.67
2019-05-21T05:44:05.713Z,2.05
2019-05-21T05:46:32.333Z,2.77
2019-05-21T05:49:07.193Z,2.25
2019-05-21T05:51:40.235Z,1.70
2019-05-21T05:54:07.785Z,2.08
2019-05-21T05:56:40.777Z,1.72
2019-05-21T05:59:07.700Z,2.25
2019-05-21T06:01:34.519Z,1.92
2019-05-21T06:04:14.192Z,2.40
2019-05-21T06:06:42.501Z,1.90
2019-05-21T06:10:19.619Z,1.98
2019-05-21T06:12:50.298Z,1.82
2019-05-21T06:15:46.369Z,2.00
2019-05-21T06:18:17.390Z,1.25
2019-05-21T06:20:50.576Z,1.30
2019-05-21T06:23:41.790Z,1.10
2019-05-21T06:26:13.462Z,1.10
2019-05-21T06:28:52.870Z,1.25
2019-05-21T06:31:30.375Z,1.20
2019-05-21T06:37:11.228Z,1.07
2019-05-21T06:40:10.823Z,0.90
2019-05-21T06:42:35.120Z,1.00
2019-05-21T06:45:02.599Z,0.85
2019-05-21T06:47:35.374Z,0.80
2019-05-21T06:50:03.447Z,1.00
2019-05-21T06:52:36.965Z,1.20
2019-05-21T06:55:04.503Z,1.15
2019-05-21T06:57:41.970Z,1.00
2019-05-21T07:00:15.415Z,1.17
2019-05-21T07:02:48.363Z,1.30
2019-05-21T07:05:17.178Z,1.27
2019-05-21T07:07:49.997Z,1.00
2019-05-21T07:10:16.692Z,1.00
2019-05-21T07:12:50.097Z,0.90
2019-05-21T07:15:18.371Z,1.02
2019-05-21T07:17:58.268Z,1.02
2019-05-21T07:20:31.647Z,0.93
2019-05-21T07:22:58.341Z,0.85
2019-05-21T07:25:32.340Z,1.02
2019-05-21T07:27:59.859Z,0.90
2019-05-21T07:30:33.498Z,1.05
2019-05-21T07:33:12.814Z,0.72
2019-05-21T07:35:47.112Z,0.80
2019-05-21T07:38:20.069Z,0.95
2019-05-21T07:43:58.614Z,0.70
2019-05-21T07:46:31.928Z,1.15
2019-05-21T07:49:11.140Z,0.80
2019-05-21T07:54:40.937Z,1.17
2019-05-21T07:57:14.532Z,1.20
2019-05-21T07:59:40.885Z,0.90
2019-05-21T08:02:07.549Z,0.80
2019-05-21T08:04:42.459Z,1.00
2019-05-21T08:07:15.494Z,0.88
2019-05-21T08:09:41.879Z,1.20
2019-05-21T08:12:27.849Z,1.02
2019-05-21T08:14:43.248Z,3.45
2019-05-21T08:17:16.789Z,5.78
2019-05-21T08:20:08.182Z,1.22
2019-05-21T08:22:25.077Z,0.75
2019-05-21T08:24:51.347Z,0.75
2019-05-21T08:27:26.165Z,0.90
2019-05-21T08:29:52.552Z,1.10
2019-05-21T08:32:25.260Z,0.60
2019-05-21T08:35:04.733Z,0.70
2019-05-21T08:37:37.728Z,0.70
2019-05-21T08:40:06.399Z,0.80
2019-05-21T08:42:39.054Z,0.72
2019-05-21T08:45:08.944Z,0.60
2019-05-21T08:47:42.546Z,1.20
2019-05-21T08:50:16.746Z,0.85
2019-05-21T08:52:43.507Z,0.70
2019-05-21T09:01:10.497Z,1.02
2019-05-21T09:03:52.548Z,0.93
2019-05-21T09:06:26.660Z,1.12
2019-05-21T09:08:53.014Z,1.00
2019-05-21T09:11:19.364Z,1.20
2019-05-21T09:13:51.990Z,0.80
2019-05-21T09:19:36.147Z,0.70
2019-05-21T09:22:01.496Z,0.80
2019-05-21T09:24:45.072Z,0.80
2019-05-21T09:30:30.630Z,1.25
2019-05-21T09:33:10.653Z,0.80
2019-05-21T09:35:43.298Z,0.80
2019-05-21T09:38:11.113Z,0.80
2019-05-21T09:40:37.504Z,0.80
2019-05-21T09:43:11.305Z,0.80
2019-05-21T09:45:57.794Z,0.75
2019-05-21T09:48:37.391Z,0.78
2019-05-21T09:51:05.642Z,0.50
2019-05-21T09:53:38.453Z,0.55
2019-05-21T09:56:30.043Z,0.47
2019-05-21T09:58:58.229Z,0.53
2019-05-21T10:01:39.360Z,0.50
2019-05-21T10:04:05.919Z,0.50
2019-05-21T10:06:38.867Z,0.60
2019-05-21T10:09:08.522Z,0.60
2019-05-21T10:11:41.222Z,0.70
2019-05-21T10:14:14.434Z,0.60
2019-05-21T10:16:47.588Z,0.50
2019-05-21T10:19:14.103Z,0.72
2019-05-21T10:21:46.918Z,0.72
2019-05-21T10:24:20.175Z,0.90
2019-05-21T10:26:46.650Z,0.50
2019-05-21T10:29:19.409Z,0.42
2019-05-21T10:31:58.912Z,0.50
2019-05-21T10:34:25.410Z,0.40
2019-05-21T10:37:05.269Z,0.50
2019-05-21T10:39:38.574Z,0.50
2019-05-21T10:45:39.643Z,0.50
2019-05-21T10:47:58.126Z,0.50
2019-05-21T10:53:41.363Z,0.50
2019-05-21T10:56:08.049Z,0.40
2019-05-21T10:58:34.531Z,0.50
2019-05-21T11:01:09.573Z,0.40
2019-05-21T11:03:44.613Z,0.55
2019-05-21T11:06:18.396Z,0.40
2019-05-21T11:08:44.855Z,0.50
2019-05-21T11:11:21.122Z,0.40
2019-05-21T11:13:52.576Z,0.40
2019-05-21T11:16:19.055Z,0.68
2019-05-21T11:18:51.822Z,0.55
2019-05-21T11:21:18.293Z,0.50
2019-05-21T11:23:51.508Z,0.50
2019-05-21T11:26:18.005Z,0.40
2019-05-21T11:28:50.741Z,0.40
2019-05-21T11:31:23.558Z,0.62
2019-05-21T11:33:50.138Z,0.50
2019-05-21T11:36:23.227Z,0.40
2019-05-21T11:38:56.610Z,0.40
2019-05-21T11:41:29.790Z,0.50
2019-05-21T11:43:56.171Z,0.55
2019-05-21T11:46:29.276Z,0.40
2019-05-21T11:49:02.502Z,0.40
2019-05-21T11:51:28.956Z,0.40
2019-05-21T11:54:01.919Z,0.60
2019-05-21T11:56:36.344Z,0.40
2019-05-21T11:59:03.164Z,0.50
2019-05-21T12:01:36.665Z,0.50
2019-05-21T12:04:09.859Z,0.50
2019-05-21T12:06:42.885Z,0.50
2019-05-21T12:09:09.343Z,0.35
2019-05-21T12:11:42.149Z,0.50
2019-05-21T12:14:08.489Z,0.40
2019-05-21T12:16:34.885Z,0.37
2019-05-21T12:19:08.610Z,0.40
2019-05-21T12:21:35.289Z,0.50
2019-05-21T12:24:04.878Z,0.42
2019-05-21T12:26:38.365Z,0.93
2019-05-21T12:29:11.524Z,0.37
2019-05-21T12:31:44.561Z,0.37
2019-05-21T12:34:23.984Z,0.60
2019-05-21T12:36:50.419Z,0.60
2019-05-21T12:39:23.909Z,0.60
2019-05-21T12:41:56.281Z,0.33
2019-05-21T12:44:22.631Z,0.50
2019-05-21T12:46:55.622Z,0.30
2019-05-21T12:49:28.656Z,0.30
2019-05-21T12:52:01.765Z,0.30
2019-05-21T12:54:35.205Z,0.57
2019-05-21T12:57:08.446Z,0.50
2019-05-21T12:59:34.905Z,0.30
2019-05-21T13:02:07.762Z,0.40
2019-05-21T13:04:47.867Z,0.40
2019-05-21T13:07:14.347Z,0.50
2019-05-21T13:09:47.243Z,0.45
2019-05-21T13:12:13.697Z,0.68
2019-05-21T13:14:40.171Z,0.37
2019-05-21T13:17:13.086Z,0.45
2019-05-21T13:19:39.552Z,0.50
2019-05-21T13:22:12.301Z,0.40
2019-05-21T13:24:45.557Z,0.50
2019-05-21T13:27:25.691Z,0.42
2019-05-21T13:29:59.042Z,0.40
2019-05-21T13:32:32.128Z,0.40
2019-05-21T13:35:05.480Z,0.50
2019-05-21T13:37:32.649Z,0.30
2019-05-21T13:40:06.153Z,0.30
2019-05-21T13:42:39.243Z,0.40
2019-05-21T13:45:19.790Z,0.65
2019-05-21T13:47:46.236Z,0.50
2019-05-21T13:50:12.801Z,0.40
2019-05-21T13:53:05.340Z,0.60
2019-05-21T13:55:38.748Z,0.50
2019-05-21T13:58:11.446Z,0.57
2019-05-21T14:00:46.381Z,0.50
2019-05-21T14:03:12.927Z,1.10
2019-05-21T14:05:39.380Z,0.70
2019-05-21T14:08:12.617Z,0.50
2019-05-21T14:10:39.291Z,0.47
2019-05-21T14:13:12.163Z,0.40
2019-05-21T14:15:45.332Z,0.70
2019-05-21T14:18:11.769Z,0.82
2019-05-21T14:20:38.226Z,0.60
2019-05-21T14:23:11.492Z,0.50
2019-05-21T14:25:37.972Z,0.55
2019-05-21T14:28:04.580Z,0.50
2019-05-21T14:30:37.219Z,0.55
2019-05-21T14:33:16.700Z,0.60
2019-05-21T14:35:43.170Z,0.75
2019-05-21T14:38:15.703Z,0.60
2019-05-21T14:40:48.920Z,0.47
2019-05-21T14:43:15.380Z,0.50
2019-05-21T14:45:48.164Z,0.57
2019-05-21T14:48:14.483Z,0.62
2019-05-21T14:50:40.858Z,0.40
2019-05-21T14:53:14.557Z,0.40
2019-05-21T14:55:48.036Z,0.50
2019-05-21T14:58:27.386Z,0.55
2019-05-21T15:01:00.648Z,0.40
2019-05-21T15:03:29.454Z,0.60
2019-05-21T15:05:55.191Z,0.30
2019-05-21T15:08:27.796Z,0.42
2019-05-21T15:11:07.146Z,0.40
2019-05-21T15:13:33.492Z,0.30
2019-05-21T15:16:06.927Z,0.65
2019-05-21T15:18:33.523Z,0.65
2019-05-21T15:21:04.877Z,0.40
2019-05-21T15:23:38.373Z,0.40
2019-05-21T15:26:11.733Z,0.50
2019-05-21T15:28:44.613Z,0.40
2019-05-21T15:31:10.980Z,0.50
2019-05-21T15:33:43.655Z,0.50
2019-05-21T15:36:16.619Z,0.60
2019-05-21T15:38:50.967Z,0.50
2019-05-21T15:41:17.508Z,0.60
2019-05-21T15:43:43.853Z,0.47
2019-05-21T15:46:16.374Z,0.40
2019-05-21T15:48:49.642Z,0.47
2019-05-21T15:51:15.881Z,0.60
2019-05-21T15:53:49.063Z,0.50
2019-05-21T15:56:21.599Z,0.50
2019-05-21T15:58:47.957Z,0.68
2019-05-21T16:01:20.591Z,0.50
2019-05-21T16:03:46.837Z,0.50
2019-05-21T16:06:13.187Z,0.50
2019-05-21T16:08:46.287Z,0.50
2019-05-21T16:11:27.342Z,0.50
2019-05-21T16:13:47.206Z,0.60
2019-05-21T16:16:13.551Z,0.60
2019-05-21T16:18:46.427Z,0.50
2019-05-21T16:21:19.491Z,0.53
2019-05-21T16:23:52.575Z,0.50
2019-05-21T16:26:25.933Z,0.40
2019-05-21T16:28:52.274Z,0.53
2019-05-21T16:31:25.745Z,0.50
2019-05-21T16:33:59.133Z,0.50
2019-05-21T16:36:32.204Z,0.40
2019-05-21T16:39:12.504Z,0.30
2019-05-21T16:41:45.618Z,0.50
2019-05-21T16:44:19.359Z,1.27
2019-05-21T16:46:45.811Z,0.98
2019-05-21T16:49:12.297Z,0.57
2019-05-21T16:51:45.445Z,0.57
2019-05-21T16:54:11.684Z,0.57
2019-05-21T16:56:51.460Z,0.75
2019-05-21T16:59:24.598Z,0.90
2019-05-21T17:01:57.746Z,0.70
2019-05-21T17:07:12.394Z,0.68
2019-05-21T17:09:39.015Z,0.50
2019-05-21T17:12:05.756Z,0.57
2019-05-21T17:14:38.927Z,0.50
2019-05-21T17:17:05.567Z,0.60
2019-05-21T17:19:39.062Z,0.57
2019-05-21T17:22:12.187Z,0.40
2019-05-21T17:24:39.097Z,0.60
2019-05-21T17:27:12.325Z,0.50
2019-05-21T17:29:38.944Z,0.70
2019-05-21T17:32:19.065Z,0.60
2019-05-21T17:34:45.680Z,0.60
2019-05-21T17:37:12.319Z,0.85
2019-05-21T17:39:45.651Z,0.95
2019-05-21T17:42:33.062Z,0.55
2019-05-21T17:45:07.432Z,0.75
2019-05-21T17:47:40.423Z,0.78
2019-05-21T17:50:14.590Z,0.80
2019-05-21T17:52:41.232Z,0.70
2019-05-21T17:55:15.086Z,0.82
2019-05-21T17:57:55.178Z,0.47
2019-05-21T18:00:24.280Z,0.55
2019-05-21T18:02:57.388Z,0.85
2019-05-21T18:05:24.656Z,0.47
2019-05-21T18:07:57.363Z,0.50
2019-05-21T18:10:24.296Z,0.50
2019-05-21T18:12:57.940Z,0.60
2019-05-21T18:15:30.994Z,0.50
2019-05-21T18:18:05.245Z,0.50
2019-05-21T18:20:32.159Z,0.57
2019-05-21T18:23:05.431Z,0.45
2019-05-21T18:25:32.063Z,0.45
2019-05-21T18:28:05.650Z,0.45
2019-05-21T18:30:32.493Z,0.35
2019-05-21T18:33:06.865Z,0.50
2019-05-21T18:35:40.297Z,0.37
2019-05-21T18:38:20.227Z,0.40
2019-05-21T18:40:47.048Z,0.50
2019-05-21T18:43:20.491Z,0.47
2019-05-21T18:45:53.849Z,0.50
2019-05-21T18:48:26.938Z,0.60
2019-05-21T18:51:00.238Z,0.57
2019-05-21T18:53:26.894Z,0.80
2019-05-21T18:56:06.636Z,0.72
2019-05-21T18:58:39.490Z,0.40
2019-05-21T19:01:12.930Z,0.68
2019-05-21T19:03:46.178Z,0.90
2019-05-21T19:06:12.819Z,0.50
2019-05-21T19:08:48.319Z,0.62
2019-05-21T19:11:14.958Z,0.65
2019-05-21T19:13:48.607Z,0.68
2019-05-21T19:16:15.235Z,0.55
2019-05-21T19:18:48.288Z,0.45
2019-05-21T19:21:14.913Z,0.40
2019-05-21T19:23:48.593Z,0.47
2019-05-21T19:26:15.213Z,0.37
2019-05-21T19:28:41.857Z,0.40
2019-05-21T19:31:14.994Z,0.50
2019-05-21T19:33:41.619Z,0.47
2019-05-21T19:36:08.352Z,0.40
2019-05-21T19:38:48.444Z,0.30
2019-05-21T19:41:21.455Z,0.50
2019-05-21T19:43:54.693Z,0.30
2019-05-21T19:46:21.321Z,0.30
2019-05-21T19:48:47.987Z,0.40
2019-05-21T19:51:21.017Z,0.30
2019-05-21T19:53:47.848Z,0.40
2019-05-21T19:56:21.432Z,0.40
2019-05-21T19:59:01.802Z,0.30
2019-05-21T20:01:28.430Z,0.50
2019-05-21T20:04:01.141Z,0.50
2019-05-21T20:06:28.560Z,0.30
2019-05-21T20:09:02.115Z,0.40
2019-05-21T20:11:29.208Z,0.30
2019-05-21T20:14:02.343Z,0.40
2019-05-21T20:16:36.885Z,0.40
2019-05-21T20:19:04.647Z,0.40
2019-05-21T20:21:38.706Z,0.40
2019-05-21T20:24:06.358Z,0.50
2019-05-21T20:26:40.746Z,0.40
2019-05-21T20:29:09.290Z,0.50
2019-05-21T20:31:50.899Z,0.40
2019-05-21T20:34:24.083Z,0.60
2019-05-21T20:36:51.709Z,0.37
2019-05-21T20:39:32.639Z,0.40
2019-05-21T20:42:00.077Z,0.30
2019-05-21T20:44:33.730Z,0.50
2019-05-21T20:47:02.076Z,0.40
2019-05-21T20:49:29.405Z,0.47
2019-05-21T20:52:17.809Z,0.40
2019-05-21T20:54:32.901Z,0.50
2019-05-21T20:57:14.493Z,0.40
2019-05-21T20:59:47.411Z,0.57
2019-05-21T21:02:22.627Z,0.40
2019-05-21T21:04:49.213Z,0.40
2019-05-21T21:07:16.136Z,0.45
2019-05-21T21:09:50.175Z,0.60
2019-05-21T21:12:17.010Z,0.40
2019-05-21T21:14:43.856Z,0.60
2019-05-21T21:17:17.618Z,0.53
2019-05-21T21:19:50.870Z,0.53
2019-05-21T21:22:17.482Z,0.40
2019-05-21T21:24:44.112Z,0.30
2019-05-21T21:27:17.350Z,0.40
2019-05-21T21:29:43.990Z,0.60
2019-05-21T21:32:17.709Z,0.40
2019-05-21T21:34:44.354Z,0.47
2019-05-21T21:37:11.884Z,0.50
2019-05-21T21:39:46.254Z,0.40
2019-05-21T21:42:13.584Z,0.60
2019-05-21T21:44:46.578Z,0.30
2019-05-21T21:47:21.923Z,0.53
2019-05-21T21:49:56.064Z,0.50
2019-05-21T21:52:23.275Z,0.42
2019-05-21T21:54:50.099Z,0.30
2019-05-21T21:57:23.811Z,0.40
2019-05-21T21:59:56.855Z,0.50
2019-05-21T22:02:34.699Z,0.40
2019-05-21T22:05:01.835Z,0.40
2019-05-21T22:07:29.159Z,0.68
2019-05-21T22:10:02.133Z,0.60
2019-05-21T22:12:29.058Z,0.50
2019-05-21T22:14:57.291Z,0.60
2019-05-21T22:17:31.301Z,0.60
2019-05-21T22:19:58.030Z,0.70
2019-05-21T22:22:25.264Z,0.53
2019-05-21T22:24:58.491Z,0.60
2019-05-21T22:27:25.989Z,0.50
2019-05-21T22:29:52.566Z,0.60
2019-05-21T22:32:26.391Z,0.80
2019-05-21T22:34:53.143Z,0.70
2019-05-21T22:37:21.604Z,0.50
2019-05-21T22:39:55.770Z,0.93
2019-05-21T22:42:23.005Z,0.70
2019-05-21T22:45:07.460Z,0.60
2019-05-21T22:47:31.046Z,0.70
2019-05-21T22:50:04.739Z,0.70
2019-05-21T22:52:37.863Z,0.88
2019-05-21T22:55:05.907Z,0.85
2019-05-21T22:57:38.742Z,0.80
2019-05-21T23:00:18.795Z,0.60
2019-05-21T23:02:52.316Z,0.53
2019-05-21T23:05:22.732Z,0.70
2019-05-21T23:07:47.493Z,0.70
2019-05-21T23:10:23.105Z,0.60
2019-05-21T23:12:50.033Z,0.70
2019-05-21T23:15:25.217Z,0.82
2019-05-21T23:17:58.854Z,0.62
2019-05-21T23:20:27.486Z,0.50
2019-05-21T23:22:55.730Z,0.70
2019-05-21T23:25:28.899Z,0.60
2019-05-21T23:27:55.543Z,0.80
2019-05-21T23:30:22.667Z,0.80
2019-05-21T23:32:56.428Z,0.62
2019-05-21T23:35:29.437Z,1.10
2019-05-21T23:38:02.925Z,1.00
2019-05-21T23:40:29.666Z,1.17
2019-05-21T23:42:56.796Z,1.35
2019-05-21T23:45:30.323Z,1.12
2019-05-21T23:47:57.046Z,1.30
2019-05-21T23:50:24.873Z,1.25
2019-05-21T23:52:58.355Z,1.20
2019-05-21T23:55:31.317Z,1.30
2019-05-21T23:58:05.891Z,1.17
